sensor_id;sensor_type;location;lat;lon;timestamp;pressure;altitude;pressure_sealevel;temperature;humidity
13367;BME280;6752;52.612;13.630;2023-06-10T00:00:36;100914.45;;;15.62;100.00
13367;BME280;6752;52.612;13.630;2023-06-10T00:05:39;100913.98;;;15.54;100.00
13367;BME280;6752;52.612;13.630;2023-06-10T00:10:41;100906.82;;;15.44;100.00
13367;BME280;6752;52.612;13.630;2023-06-10T00:15:44;100904.45;;;15.42;100.00
13367;BME280;6752;52.612;13.630;2023-06-10T00:20:46;100898.29;;;15.29;100.00
13367;BME280;6752;52.612;13.630;2023-06-10T00:25:48;100897.56;;;15.05;100.00
13367;BME280;6752;52.612;13.630;2023-06-10T00:30:51;100898.55;;;14.99;100.00
13367;BME280;6752;52.612;13.630;2023-06-10T00:35:53;100889.98;;;14.96;100.00
13367;BME280;6752;52.612;13.630;2023-06-10T00:40:55;100897.92;;;14.95;100.00
13367;BME280;6752;52.612;13.630;2023-06-10T00:45:58;100892.55;;;14.88;100.00
13367;BME280;6752;52.612;13.630;2023-06-10T00:51:00;100901.33;;;14.93;100.00
13367;BME280;6752;52.612;13.630;2023-06-10T00:56:03;100899.56;;;14.81;100.00
13367;BME280;6752;52.612;13.630;2023-06-10T01:01:05;100894.78;;;14.68;100.00
13367;BME280;6752;52.612;13.630;2023-06-10T01:11:13;100900.93;;;14.38;100.00
13367;BME280;6752;52.612;13.630;2023-06-10T01:16:12;100912.78;;;14.44;100.00
13367;BME280;6752;52.612;13.630;2023-06-10T01:21:21;100910.25;;;14.54;100.00
13367;BME280;6752;52.612;13.630;2023-06-10T01:26:24;100919.55;;;14.53;100.00
13367;BME280;6752;52.612;13.630;2023-06-10T01:31:29;100912.92;;;14.58;100.00
13367;BME280;6752;52.612;13.630;2023-06-10T01:36:28;100922.84;;;14.24;100.00
13367;BME280;6752;52.612;13.630;2023-06-10T01:41:30;100920.56;;;14.26;100.00
13367;BME280;6752;52.612;13.630;2023-06-10T01:46:33;100920.14;;;14.32;100.00
13367;BME280;6752;52.612;13.630;2023-06-10T01:51:35;100920.14;;;14.32;100.00
13367;BME280;6752;52.612;13.630;2023-06-10T01:56:37;100918.84;;;14.23;100.00
13367;BME280;6752;52.612;13.630;2023-06-10T02:01:40;100924.48;;;14.13;100.00
13367;BME280;6752;52.612;13.630;2023-06-10T02:06:42;100930.16;;;14.03;100.00
13367;BME280;6752;52.612;13.630;2023-06-10T02:11:45;100925.43;;;13.89;100.00
13367;BME280;6752;52.612;13.630;2023-06-10T02:16:47;100930.05;;;13.98;100.00
13367;BME280;6752;52.612;13.630;2023-06-10T02:21:49;100934.72;;;13.94;100.00
13367;BME280;6752;52.612;13.630;2023-06-10T02:26:52;100943.53;;;13.79;100.00
13367;BME280;6752;52.612;13.630;2023-06-10T02:31:58;100941.51;;;13.74;100.00
13367;BME280;6752;52.612;13.630;2023-06-10T02:36:57;100937.64;;;13.73;100.00
13367;BME280;6752;52.612;13.630;2023-06-10T02:41:59;100937.10;;;13.73;100.00
13367;BME280;6752;52.612;13.630;2023-06-10T02:47:01;100939.20;;;13.65;100.00
13367;BME280;6752;52.612;13.630;2023-06-10T02:52:04;100930.63;;;13.67;100.00
13367;BME280;6752;52.612;13.630;2023-06-10T02:57:06;100932.23;;;13.60;100.00
13367;BME280;6752;52.612;13.630;2023-06-10T03:02:09;100935.21;;;13.59;100.00
13367;BME280;6752;52.612;13.630;2023-06-10T03:07:11;100929.55;;;13.57;100.00
13367;BME280;6752;52.612;13.630;2023-06-10T03:12:13;100928.95;;;13.49;100.00
13367;BME280;6752;52.612;13.630;2023-06-10T03:17:16;100933.78;;;13.62;100.00
13367;BME280;6752;52.612;13.630;2023-06-10T03:22:18;100931.47;;;13.68;100.00
13367;BME280;6752;52.612;13.630;2023-06-10T03:27:20;100936.59;;;13.64;100.00
13367;BME280;6752;52.612;13.630;2023-06-10T03:32:23;100932.36;;;13.65;100.00
13367;BME280;6752;52.612;13.630;2023-06-10T03:37:25;100930.33;;;13.61;100.00
13367;BME280;6752;52.612;13.630;2023-06-10T03:42:28;100938.65;;;13.75;100.00
13367;BME280;6752;52.612;13.630;2023-06-10T03:47:37;100948.78;;;13.86;100.00
13367;BME280;6752;52.612;13.630;2023-06-10T03:52:36;100944.77;;;14.00;100.00
13367;BME280;6752;52.612;13.630;2023-06-10T03:57:38;100944.75;;;14.12;100.00
13367;BME280;6752;52.612;13.630;2023-06-10T04:02:40;100945.67;;;14.21;100.00
13367;BME280;6752;52.612;13.630;2023-06-10T04:07:43;100949.81;;;14.44;100.00
13367;BME280;6752;52.612;13.630;2023-06-10T04:12:45;100953.81;;;14.65;100.00
13367;BME280;6752;52.612;13.630;2023-06-10T04:17:47;100955.45;;;14.84;100.00
13367;BME280;6752;52.612;13.630;2023-06-10T04:22:50;100949.60;;;15.06;100.00
13367;BME280;6752;52.612;13.630;2023-06-10T04:27:52;100956.09;;;15.37;100.00
13367;BME280;6752;52.612;13.630;2023-06-10T04:32:55;100960.38;;;15.64;100.00
13367;BME280;6752;52.612;13.630;2023-06-10T04:37:57;100960.67;;;16.07;100.00
13367;BME280;6752;52.612;13.630;2023-06-10T04:42:59;100977.36;;;16.18;100.00
13367;BME280;6752;52.612;13.630;2023-06-10T04:48:02;100986.78;;;16.13;100.00
13367;BME280;6752;52.612;13.630;2023-06-10T04:53:04;100983.22;;;16.24;100.00
13367;BME280;6752;52.612;13.630;2023-06-10T04:58:06;100995.70;;;16.12;100.00
13367;BME280;6752;52.612;13.630;2023-06-10T05:03:09;100999.43;;;16.23;100.00
13367;BME280;6752;52.612;13.630;2023-06-10T05:08:12;101004.86;;;16.34;100.00
13367;BME280;6752;52.612;13.630;2023-06-10T05:13:16;100997.94;;;16.51;100.00
13367;BME280;6752;52.612;13.630;2023-06-10T05:18:17;101005.48;;;16.39;100.00
13367;BME280;6752;52.612;13.630;2023-06-10T05:23:19;101004.05;;;16.45;100.00
13367;BME280;6752;52.612;13.630;2023-06-10T05:28:21;101001.80;;;16.42;100.00
13367;BME280;6752;52.612;13.630;2023-06-10T05:33:24;101013.86;;;16.66;100.00
13367;BME280;6752;52.612;13.630;2023-06-10T05:38:26;101000.91;;;16.81;100.00
13367;BME280;6752;52.612;13.630;2023-06-10T05:43:28;101012.87;;;17.02;100.00
13367;BME280;6752;52.612;13.630;2023-06-10T05:48:30;101008.59;;;17.33;100.00
13367;BME280;6752;52.612;13.630;2023-06-10T05:53:33;101005.91;;;18.40;100.00
13367;BME280;6752;52.612;13.630;2023-06-10T05:58:35;101008.93;;;18.71;100.00
13367;BME280;6752;52.612;13.630;2023-06-10T06:03:37;101007.70;;;19.69;97.40
13367;BME280;6752;52.612;13.630;2023-06-10T06:08:40;101010.09;;;20.07;92.86
13367;BME280;6752;52.612;13.630;2023-06-10T06:13:42;101014.38;;;20.31;91.46
13367;BME280;6752;52.612;13.630;2023-06-10T06:18:45;101023.08;;;20.85;85.80
13367;BME280;6752;52.612;13.630;2023-06-10T06:23:47;101037.55;;;21.02;82.21
13367;BME280;6752;52.612;13.630;2023-06-10T06:28:49;101041.02;;;21.00;80.27
13367;BME280;6752;52.612;13.630;2023-06-10T06:33:52;101045.12;;;20.53;84.89
13367;BME280;6752;52.612;13.630;2023-06-10T06:38:54;101046.39;;;20.46;83.29
13367;BME280;6752;52.612;13.630;2023-06-10T06:43:56;101054.42;;;20.45;83.15
13367;BME280;6752;52.612;13.630;2023-06-10T06:48:59;101063.42;;;20.46;82.56
13367;BME280;6752;52.612;13.630;2023-06-10T06:54:01;101060.92;;;20.65;81.34
13367;BME280;6752;52.612;13.630;2023-06-10T06:59:04;101066.33;;;21.21;80.87
13367;BME280;6752;52.612;13.630;2023-06-10T07:04:06;101063.23;;;22.17;76.96
13367;BME280;6752;52.612;13.630;2023-06-10T07:09:08;101074.56;;;22.03;79.01
13367;BME280;6752;52.612;13.630;2023-06-10T07:14:11;101070.69;;;22.41;77.28
13367;BME280;6752;52.612;13.630;2023-06-10T07:19:13;101082.98;;;23.34;73.72
13367;BME280;6752;52.612;13.630;2023-06-10T07:24:16;101076.38;;;23.84;72.44
13367;BME280;6752;52.612;13.630;2023-06-10T07:29:18;101078.29;;;24.75;67.30
13367;BME280;6752;52.612;13.630;2023-06-10T07:34:20;101083.33;;;25.06;65.17
13367;BME280;6752;52.612;13.630;2023-06-10T07:39:23;101086.95;;;24.97;66.84
13367;BME280;6752;52.612;13.630;2023-06-10T07:44:25;101091.95;;;25.00;67.22
13367;BME280;6752;52.612;13.630;2023-06-10T07:49:28;101092.53;;;24.74;64.35
13367;BME280;6752;52.612;13.630;2023-06-10T07:54:30;101092.64;;;24.99;66.32
13367;BME280;6752;52.612;13.630;2023-06-10T07:59:32;101097.50;;;24.77;65.47
13367;BME280;6752;52.612;13.630;2023-06-10T08:04:35;101098.73;;;24.94;67.44
13367;BME280;6752;52.612;13.630;2023-06-10T08:09:37;101105.84;;;25.02;65.81
13367;BME280;6752;52.612;13.630;2023-06-10T08:14:39;101105.82;;;25.19;65.86
13367;BME280;6752;52.612;13.630;2023-06-10T08:19:41;101102.97;;;24.91;66.93
13367;BME280;6752;52.612;13.630;2023-06-10T08:24:44;101108.08;;;24.35;68.36
13367;BME280;6752;52.612;13.630;2023-06-10T08:29:46;101110.62;;;24.83;66.89
13367;BME280;6752;52.612;13.630;2023-06-10T08:34:48;101111.80;;;24.79;67.67
13367;BME280;6752;52.612;13.630;2023-06-10T08:39:50;101115.19;;;24.70;67.71
13367;BME280;6752;52.612;13.630;2023-06-10T08:44:56;101119.18;;;24.19;67.66
13367;BME280;6752;52.612;13.630;2023-06-10T08:49:58;101130.92;;;23.37;69.99
13367;BME280;6752;52.612;13.630;2023-06-10T08:55:04;101127.08;;;23.33;71.26
13367;BME280;6752;52.612;13.630;2023-06-10T09:00:06;101136.33;;;22.85;72.98
13367;BME280;6752;52.612;13.630;2023-06-10T09:05:08;101136.03;;;23.42;70.46
13367;BME280;6752;52.612;13.630;2023-06-10T09:10:10;101138.81;;;23.42;72.27
13367;BME280;6752;52.612;13.630;2023-06-10T09:15:12;101146.13;;;23.33;71.60
13367;BME280;6752;52.612;13.630;2023-06-10T09:20:15;101148.13;;;23.56;70.28
13367;BME280;6752;52.612;13.630;2023-06-10T09:25:17;101141.52;;;23.35;69.93
13367;BME280;6752;52.612;13.630;2023-06-10T09:35:30;101146.25;;;23.35;69.92
13367;BME280;6752;52.612;13.630;2023-06-10T09:40:32;101137.95;;;22.89;75.58
13367;BME280;6752;52.612;13.630;2023-06-10T09:45:35;101156.56;;;22.54;73.01
13367;BME280;6752;52.612;13.630;2023-06-10T09:50:44;101156.77;;;22.26;74.27
13367;BME280;6752;52.612;13.630;2023-06-10T09:55:46;101160.38;;;21.92;75.22
13367;BME280;6752;52.612;13.630;2023-06-10T10:00:52;101158.67;;;20.96;90.95
13367;BME280;6752;52.612;13.630;2023-06-10T10:05:57;101149.11;;;20.54;98.31
13367;BME280;6752;52.612;13.630;2023-06-10T10:10:53;101162.84;;;20.09;100.00
13367;BME280;6752;52.612;13.630;2023-06-10T10:15:56;101169.56;;;20.36;100.00
13367;BME280;6752;52.612;13.630;2023-06-10T10:21:00;101130.92;;;19.76;91.86
13367;BME280;6752;52.612;13.630;2023-06-10T10:26:00;101107.11;;;19.64;96.56
13367;BME280;6752;52.612;13.630;2023-06-10T10:31:05;101112.50;;;20.14;100.00
13367;BME280;6752;52.612;13.630;2023-06-10T10:36:05;101113.38;;;20.56;95.01
13367;BME280;6752;52.612;13.630;2023-06-10T10:41:07;101110.73;;;20.95;95.95
13367;BME280;6752;52.612;13.630;2023-06-10T10:46:14;101120.45;;;20.85;100.00
13367;BME280;6752;52.612;13.630;2023-06-10T10:51:23;101114.84;;;21.26;100.00
13367;BME280;6752;52.612;13.630;2023-06-10T10:56:26;101123.59;;;21.13;100.00
13367;BME280;6752;52.612;13.630;2023-06-10T11:01:27;101112.36;;;22.75;100.00
13367;BME280;6752;52.612;13.630;2023-06-10T11:06:29;101119.30;;;24.49;100.00
13367;BME280;6752;52.612;13.630;2023-06-10T11:11:32;101119.78;;;24.35;100.00
13367;BME280;6752;52.612;13.630;2023-06-10T11:16:41;101116.56;;;24.53;93.70
13367;BME280;6752;52.612;13.630;2023-06-10T11:22:07;101119.63;;;25.61;87.64
13367;BME280;6752;52.612;13.630;2023-06-10T11:26:47;101123.52;;;26.51;80.32
13367;BME280;6752;52.612;13.630;2023-06-10T11:31:50;101123.88;;;27.77;78.58
13367;BME280;6752;52.612;13.630;2023-06-10T11:36:53;101115.23;;;27.85;65.72
13367;BME280;6752;52.612;13.630;2023-06-10T11:41:55;101108.14;;;28.51;65.93
13367;BME280;6752;52.612;13.630;2023-06-10T11:46:57;101103.51;;;29.27;62.60
13367;BME280;6752;52.612;13.630;2023-06-10T11:51:59;101092.88;;;29.90;61.81
13367;BME280;6752;52.612;13.630;2023-06-10T11:57:01;101099.89;;;29.65;62.32
13367;BME280;6752;52.612;13.630;2023-06-10T12:02:04;101090.04;;;30.09;62.85
13367;BME280;6752;52.612;13.630;2023-06-10T12:07:06;101081.13;;;29.67;58.01
13367;BME280;6752;52.612;13.630;2023-06-10T12:12:08;101082.49;;;28.50;59.89
13367;BME280;6752;52.612;13.630;2023-06-10T12:17:10;101084.36;;;30.03;59.36
13367;BME280;6752;52.612;13.630;2023-06-10T12:22:13;101078.04;;;29.81;59.29
13367;BME280;6752;52.612;13.630;2023-06-10T12:27:15;101070.37;;;30.36;54.39
13367;BME280;6752;52.612;13.630;2023-06-10T12:32:17;101077.50;;;30.50;58.73
13367;BME280;6752;52.612;13.630;2023-06-10T12:37:19;101064.31;;;30.30;56.79
13367;BME280;6752;52.612;13.630;2023-06-10T12:42:22;101065.21;;;29.97;59.76
13367;BME280;6752;52.612;13.630;2023-06-10T12:47:34;101044.48;;;30.43;57.52
13367;BME280;6752;52.612;13.630;2023-06-10T12:52:36;101044.30;;;30.37;56.27
13367;BME280;6752;52.612;13.630;2023-06-10T12:57:47;101034.21;;;30.30;54.95
13367;BME280;6752;52.612;13.630;2023-06-10T13:02:40;101036.78;;;30.29;55.49
13367;BME280;6752;52.612;13.630;2023-06-10T13:07:43;101035.80;;;30.36;54.33
13367;BME280;6752;52.612;13.630;2023-06-10T13:12:45;101029.95;;;30.74;53.26
13367;BME280;6752;52.612;13.630;2023-06-10T13:17:47;101032.63;;;30.93;52.53
13367;BME280;6752;52.612;13.630;2023-06-10T13:22:50;101026.73;;;30.57;51.89
13367;BME280;6752;52.612;13.630;2023-06-10T13:27:52;101011.58;;;30.89;52.42
13367;BME280;6752;52.612;13.630;2023-06-10T13:32:55;101023.68;;;30.06;52.71
13367;BME280;6752;52.612;13.630;2023-06-10T13:37:57;101025.25;;;30.33;52.20
13367;BME280;6752;52.612;13.630;2023-06-10T13:42:59;101018.84;;;29.65;50.23
13367;BME280;6752;52.612;13.630;2023-06-10T13:48:02;101008.27;;;30.36;49.30
13367;BME280;6752;52.612;13.630;2023-06-10T13:53:04;101013.61;;;30.55;49.96
13367;BME280;6752;52.612;13.630;2023-06-10T13:58:07;101005.14;;;31.06;48.72
13367;BME280;6752;52.612;13.630;2023-06-10T14:03:09;100990.53;;;30.51;49.05
13367;BME280;6752;52.612;13.630;2023-06-10T14:08:11;100984.14;;;30.79;44.67
13367;BME280;6752;52.612;13.630;2023-06-10T14:13:14;100993.39;;;30.24;45.29
13367;BME280;6752;52.612;13.630;2023-06-10T14:18:16;100990.99;;;30.24;46.55
13367;BME280;6752;52.612;13.630;2023-06-10T14:23:18;100978.73;;;30.99;46.07
13367;BME280;6752;52.612;13.630;2023-06-10T14:28:21;100983.22;;;30.09;44.33
13367;BME280;6752;52.612;13.630;2023-06-10T14:33:23;100975.66;;;30.61;44.00
13367;BME280;6752;52.612;13.630;2023-06-10T14:38:26;100986.84;;;30.26;44.41
13367;BME280;6752;52.612;13.630;2023-06-10T14:43:28;100988.75;;;29.97;45.51
13367;BME280;6752;52.612;13.630;2023-06-10T14:48:30;100993.95;;;29.59;48.26
13367;BME280;6752;52.612;13.630;2023-06-10T14:53:33;100990.66;;;28.94;49.38
13367;BME280;6752;52.612;13.630;2023-06-10T14:58:35;100987.77;;;28.60;49.52
13367;BME280;6752;52.612;13.630;2023-06-10T15:03:38;100983.79;;;28.98;48.99
13367;BME280;6752;52.612;13.630;2023-06-10T15:08:40;100978.84;;;29.14;45.59
13367;BME280;6752;52.612;13.630;2023-06-10T15:13:42;100986.53;;;29.25;47.48
13367;BME280;6752;52.612;13.630;2023-06-10T15:18:45;100978.06;;;29.44;45.89
13367;BME280;6752;52.612;13.630;2023-06-10T15:23:47;100977.38;;;29.22;45.97
13367;BME280;6752;52.612;13.630;2023-06-10T15:28:50;100968.20;;;29.13;46.27
13367;BME280;6752;52.612;13.630;2023-06-10T15:33:52;100971.02;;;29.24;44.80
13367;BME280;6752;52.612;13.630;2023-06-10T15:38:54;100966.00;;;29.04;42.90
13367;BME280;6752;52.612;13.630;2023-06-10T15:43:56;100960.53;;;29.08;42.14
13367;BME280;6752;52.612;13.630;2023-06-10T15:49:01;100956.98;;;28.71;38.71
13367;BME280;6752;52.612;13.630;2023-06-10T15:54:03;100961.53;;;29.12;39.93
13367;BME280;6752;52.612;13.630;2023-06-10T15:59:06;100957.06;;;28.96;39.52
13367;BME280;6752;52.612;13.630;2023-06-10T16:04:08;100953.22;;;28.90;39.29
13367;BME280;6752;52.612;13.630;2023-06-10T16:09:11;100954.95;;;28.61;38.97
13367;BME280;6752;52.612;13.630;2023-06-10T16:14:13;100949.74;;;28.38;38.26
13367;BME280;6752;52.612;13.630;2023-06-10T16:19:15;100957.88;;;28.50;38.86
13367;BME280;6752;52.612;13.630;2023-06-10T16:24:18;100960.12;;;27.96;38.18
13367;BME280;6752;52.612;13.630;2023-06-10T16:29:20;100964.06;;;27.87;38.22
13367;BME280;6752;52.612;13.630;2023-06-10T16:34:23;100962.17;;;27.85;39.86
13367;BME280;6752;52.612;13.630;2023-06-10T16:39:25;100966.30;;;27.79;39.82
13367;BME280;6752;52.612;13.630;2023-06-10T16:44:27;100965.02;;;27.56;38.88
13367;BME280;6752;52.612;13.630;2023-06-10T16:49:30;100974.12;;;27.38;41.05
13367;BME280;6752;52.612;13.630;2023-06-10T16:54:32;100967.38;;;27.26;39.45
13367;BME280;6752;52.612;13.630;2023-06-10T16:59:34;100977.08;;;27.24;40.42
13367;BME280;6752;52.612;13.630;2023-06-10T17:04:37;100969.06;;;27.16;40.85
13367;BME280;6752;52.612;13.630;2023-06-10T17:09:39;100975.05;;;27.03;40.57
13367;BME280;6752;52.612;13.630;2023-06-10T17:14:42;100975.58;;;26.98;40.99
13367;BME280;6752;52.612;13.630;2023-06-10T17:19:44;100978.78;;;26.74;41.80
13367;BME280;6752;52.612;13.630;2023-06-10T17:24:46;100986.59;;;26.75;43.32
13367;BME280;6752;52.612;13.630;2023-06-10T17:29:48;100996.77;;;26.55;45.25
13367;BME280;6752;52.612;13.630;2023-06-10T17:34:51;101009.63;;;26.27;48.75
13367;BME280;6752;52.612;13.630;2023-06-10T17:39:53;101009.63;;;26.16;48.58
13367;BME280;6752;52.612;13.630;2023-06-10T17:44:55;101025.00;;;25.98;50.67
13367;BME280;6752;52.612;13.630;2023-06-10T17:49:57;101028.68;;;25.78;51.34
13367;BME280;6752;52.612;13.630;2023-06-10T17:55:00;101032.99;;;25.79;51.98
13367;BME280;6752;52.612;13.630;2023-06-10T18:00:02;101034.02;;;25.63;51.39
13367;BME280;6752;52.612;13.630;2023-06-10T18:05:04;101037.18;;;25.52;52.10
13367;BME280;6752;52.612;13.630;2023-06-10T18:10:07;101039.45;;;25.32;52.41
13367;BME280;6752;52.612;13.630;2023-06-10T18:15:09;101041.51;;;25.19;51.79
13367;BME280;6752;52.612;13.630;2023-06-10T18:20:12;101043.14;;;25.07;53.10
13367;BME280;6752;52.612;13.630;2023-06-10T18:25:14;101051.19;;;24.78;54.10
13367;BME280;6752;52.612;13.630;2023-06-10T18:30:16;101058.52;;;24.74;54.30
13367;BME280;6752;52.612;13.630;2023-06-10T18:35:19;101066.45;;;24.51;55.68
13367;BME280;6752;52.612;13.630;2023-06-10T18:40:21;101066.44;;;24.34;57.19
13367;BME280;6752;52.612;13.630;2023-06-10T18:45:24;101079.77;;;24.00;58.75
13367;BME280;6752;52.612;13.630;2023-06-10T18:50:26;101080.26;;;24.04;57.87
13367;BME280;6752;52.612;13.630;2023-06-10T18:55:29;101086.19;;;23.88;58.88
13367;BME280;6752;52.612;13.630;2023-06-10T19:00:31;101090.11;;;23.54;60.28
13367;BME280;6752;52.612;13.630;2023-06-10T19:05:33;101094.28;;;23.21;61.68
13367;BME280;6752;52.612;13.630;2023-06-10T19:10:35;101097.77;;;23.17;62.09
13367;BME280;6752;52.612;13.630;2023-06-10T19:15:38;101114.04;;;23.05;63.01
13367;BME280;6752;52.612;13.630;2023-06-10T19:20:40;101109.95;;;22.95;63.27
13367;BME280;6752;52.612;13.630;2023-06-10T19:25:43;101120.50;;;22.83;63.54
13367;BME280;6752;52.612;13.630;2023-06-10T19:30:45;101127.73;;;22.48;64.86
13367;BME280;6752;52.612;13.630;2023-06-10T19:35:47;101143.73;;;22.24;65.43
13367;BME280;6752;52.612;13.630;2023-06-10T19:40:50;101143.83;;;22.29;64.10
13367;BME280;6752;52.612;13.630;2023-06-10T19:45:52;101146.32;;;22.03;65.16
13367;BME280;6752;52.612;13.630;2023-06-10T19:50:54;101159.17;;;21.84;65.63
13367;BME280;6752;52.612;13.630;2023-06-10T19:55:57;101150.61;;;21.78;65.13
13367;BME280;6752;52.612;13.630;2023-06-10T20:00:59;101166.46;;;21.64;66.03
13367;BME280;6752;52.612;13.630;2023-06-10T20:06:02;101164.72;;;21.44;66.76
13367;BME280;6752;52.612;13.630;2023-06-10T20:11:04;101164.75;;;21.26;67.21
13367;BME280;6752;52.612;13.630;2023-06-10T20:16:06;101184.58;;;21.01;68.52
13367;BME280;6752;52.612;13.630;2023-06-10T20:21:09;101193.86;;;20.60;70.99
13367;BME280;6752;52.612;13.630;2023-06-10T20:26:11;101195.08;;;20.56;72.61
13367;BME280;6752;52.612;13.630;2023-06-10T20:31:14;101207.31;;;20.23;74.69
13367;BME280;6752;52.612;13.630;2023-06-10T20:36:16;101221.99;;;19.87;76.96
13367;BME280;6752;52.612;13.630;2023-06-10T20:41:18;101225.41;;;19.84;77.10
13367;BME280;6752;52.612;13.630;2023-06-10T20:46:21;101225.82;;;19.58;77.51
13367;BME280;6752;52.612;13.630;2023-06-10T20:51:23;101225.39;;;19.39;77.24
13367;BME280;6752;52.612;13.630;2023-06-10T20:56:26;101236.79;;;19.26;76.65
13367;BME280;6752;52.612;13.630;2023-06-10T21:01:28;101228.30;;;19.01;76.52
13367;BME280;6752;52.612;13.630;2023-06-10T21:06:30;101230.34;;;18.84;76.05
13367;BME280;6752;52.612;13.630;2023-06-10T21:11:33;101250.86;;;18.63;76.51
13367;BME280;6752;52.612;13.630;2023-06-10T21:16:35;101255.16;;;18.54;76.30
13367;BME280;6752;52.612;13.630;2023-06-10T21:21:38;101250.79;;;18.34;77.65
13367;BME280;6752;52.612;13.630;2023-06-10T21:26:40;101260.41;;;18.20;77.11
13367;BME280;6752;52.612;13.630;2023-06-10T21:31:42;101259.67;;;17.95;77.67
13367;BME280;6752;52.612;13.630;2023-06-10T21:36:45;101269.33;;;17.67;78.49
13367;BME280;6752;52.612;13.630;2023-06-10T21:41:47;101272.73;;;17.46;78.57
13367;BME280;6752;52.612;13.630;2023-06-10T21:46:49;101272.19;;;17.28;80.50
13367;BME280;6752;52.612;13.630;2023-06-10T21:51:51;101275.43;;;17.16;79.95
13367;BME280;6752;52.612;13.630;2023-06-10T21:56:54;101269.89;;;17.05;79.04
13367;BME280;6752;52.612;13.630;2023-06-10T22:01:56;101279.91;;;16.97;78.62
13367;BME280;6752;52.612;13.630;2023-06-10T22:06:58;101278.45;;;17.00;77.96
13367;BME280;6752;52.612;13.630;2023-06-10T22:12:01;101288.77;;;16.77;79.99
13367;BME280;6752;52.612;13.630;2023-06-10T22:17:03;101289.02;;;16.75;78.83
13367;BME280;6752;52.612;13.630;2023-06-10T22:22:06;101292.64;;;16.64;78.79
13367;BME280;6752;52.612;13.630;2023-06-10T22:27:08;101290.67;;;16.62;76.06
13367;BME280;6752;52.612;13.630;2023-06-10T22:32:10;101287.05;;;16.53;77.10
13367;BME280;6752;52.612;13.630;2023-06-10T22:37:12;101286.64;;;16.38;77.80
13367;BME280;6752;52.612;13.630;2023-06-10T22:42:15;101295.48;;;16.20;78.61
13367;BME280;6752;52.612;13.630;2023-06-10T22:47:17;101288.31;;;16.08;77.87
13367;BME280;6752;52.612;13.630;2023-06-10T22:52:19;101283.70;;;15.91;78.41
13367;BME280;6752;52.612;13.630;2023-06-10T22:57:22;101285.86;;;15.77;78.80
13367;BME280;6752;52.612;13.630;2023-06-10T23:02:24;101283.95;;;15.60;79.83
13367;BME280;6752;52.612;13.630;2023-06-10T23:07:27;101283.27;;;15.26;82.13
13367;BME280;6752;52.612;13.630;2023-06-10T23:12:29;101285.59;;;15.26;82.26
13367;BME280;6752;52.612;13.630;2023-06-10T23:17:31;101283.80;;;15.31;81.43
13367;BME280;6752;52.612;13.630;2023-06-10T23:22:34;101293.17;;;15.33;79.75
13367;BME280;6752;52.612;13.630;2023-06-10T23:27:36;101286.92;;;15.08;80.30
13367;BME280;6752;52.612;13.630;2023-06-10T23:32:38;101290.44;;;14.95;81.40
13367;BME280;6752;52.612;13.630;2023-06-10T23:37:41;101293.91;;;14.87;80.51
13367;BME280;6752;52.612;13.630;2023-06-10T23:42:43;101294.92;;;14.98;78.63
13367;BME280;6752;52.612;13.630;2023-06-10T23:47:46;101301.17;;;14.75;81.11
13367;BME280;6752;52.612;13.630;2023-06-10T23:52:48;101304.09;;;14.77;80.59
13367;BME280;6752;52.612;13.630;2023-06-10T23:57:50;101316.03;;;14.77;79.38
